sensor_id;sensor_type;location;lat;lon;timestamp;P1;durP1;ratioP1;P2;durP2;ratioP2
19537;SDS011;9914;51.008;4.300;2022-08-25T00:01:32;6.03;;;5.07;;
19537;SDS011;9914;51.008;4.300;2022-08-25T00:04:02;6.40;;;4.93;;
19537;SDS011;9914;51.008;4.300;2022-08-25T00:06:30;6.67;;;5.00;;
19537;SDS011;9914;51.008;4.300;2022-08-25T00:08:56;6.83;;;4.67;;
19537;SDS011;9914;51.008;4.300;2022-08-25T00:11:24;5.57;;;5.07;;
19537;SDS011;9914;51.008;4.300;2022-08-25T00:13:55;8.67;;;5.17;;
19537;SDS011;9914;51.008;4.300;2022-08-25T00:16:23;7.07;;;5.30;;
19537;SDS011;9914;51.008;4.300;2022-08-25T00:18:51;7.53;;;5.40;;
19537;SDS011;9914;51.008;4.300;2022-08-25T00:21:19;6.50;;;4.43;;
19537;SDS011;9914;51.008;4.300;2022-08-25T00:23:45;5.87;;;5.07;;
19537;SDS011;9914;51.008;4.300;2022-08-25T00:26:12;4.93;;;4.53;;
19537;SDS011;9914;51.008;4.300;2022-08-25T00:28:39;6.23;;;5.00;;
19537;SDS011;9914;51.008;4.300;2022-08-25T00:31:05;4.97;;;4.57;;
19537;SDS011;9914;51.008;4.300;2022-08-25T00:33:34;6.37;;;4.90;;
19537;SDS011;9914;51.008;4.300;2022-08-25T00:36:00;8.07;;;5.20;;
19537;SDS011;9914;51.008;4.300;2022-08-25T00:38:26;5.73;;;4.93;;
19537;SDS011;9914;51.008;4.300;2022-08-25T00:40:51;10.27;;;4.87;;
19537;SDS011;9914;51.008;4.300;2022-08-25T00:43:35;5.33;;;4.90;;
19537;SDS011;9914;51.008;4.300;2022-08-25T00:46:16;6.43;;;4.87;;
19537;SDS011;9914;51.008;4.300;2022-08-25T00:48:46;5.30;;;4.80;;
19537;SDS011;9914;51.008;4.300;2022-08-25T00:51:18;7.37;;;4.90;;
19537;SDS011;9914;51.008;4.300;2022-08-25T00:53:49;9.00;;;4.80;;
19537;SDS011;9914;51.008;4.300;2022-08-25T00:56:15;8.30;;;4.77;;
19537;SDS011;9914;51.008;4.300;2022-08-25T00:58:42;7.70;;;4.77;;
19537;SDS011;9914;51.008;4.300;2022-08-25T01:01:08;8.63;;;5.20;;
19537;SDS011;9914;51.008;4.300;2022-08-25T01:03:35;6.40;;;4.33;;
19537;SDS011;9914;51.008;4.300;2022-08-25T01:06:00;8.80;;;5.07;;
19537;SDS011;9914;51.008;4.300;2022-08-25T01:08:28;8.10;;;5.10;;
19537;SDS011;9914;51.008;4.300;2022-08-25T01:10:57;5.67;;;4.90;;
19537;SDS011;9914;51.008;4.300;2022-08-25T01:13:28;6.30;;;5.70;;
19537;SDS011;9914;51.008;4.300;2022-08-25T01:16:09;6.17;;;5.57;;
19537;SDS011;9914;51.008;4.300;2022-08-25T01:18:47;6.17;;;5.60;;
19537;SDS011;9914;51.008;4.300;2022-08-25T01:21:16;6.83;;;5.90;;
19537;SDS011;9914;51.008;4.300;2022-08-25T01:23:43;7.60;;;6.07;;
19537;SDS011;9914;51.008;4.300;2022-08-25T01:26:14;8.27;;;7.17;;
19537;SDS011;9914;51.008;4.300;2022-08-25T01:28:43;8.37;;;6.70;;
19537;SDS011;9914;51.008;4.300;2022-08-25T01:31:30;7.13;;;6.43;;
19537;SDS011;9914;51.008;4.300;2022-08-25T01:33:57;9.30;;;6.47;;
19537;SDS011;9914;51.008;4.300;2022-08-25T01:36:23;6.87;;;6.07;;
19537;SDS011;9914;51.008;4.300;2022-08-25T01:38:50;8.87;;;6.00;;
19537;SDS011;9914;51.008;4.300;2022-08-25T01:41:16;6.43;;;5.93;;
19537;SDS011;9914;51.008;4.300;2022-08-25T01:44:00;6.50;;;5.77;;
19537;SDS011;9914;51.008;4.300;2022-08-25T01:46:31;8.53;;;6.23;;
19537;SDS011;9914;51.008;4.300;2022-08-25T01:48:58;6.77;;;5.70;;
19537;SDS011;9914;51.008;4.300;2022-08-25T01:51:28;8.23;;;6.30;;
19537;SDS011;9914;51.008;4.300;2022-08-25T01:53:58;8.37;;;6.00;;
19537;SDS011;9914;51.008;4.300;2022-08-25T01:56:24;7.97;;;6.03;;
19537;SDS011;9914;51.008;4.300;2022-08-25T01:58:49;8.33;;;5.47;;
19537;SDS011;9914;51.008;4.300;2022-08-25T02:01:16;8.13;;;6.20;;
19537;SDS011;9914;51.008;4.300;2022-08-25T02:03:46;6.80;;;6.20;;
19537;SDS011;9914;51.008;4.300;2022-08-25T02:06:15;9.53;;;6.47;;
19537;SDS011;9914;51.008;4.300;2022-08-25T02:08:42;7.00;;;6.30;;
19537;SDS011;9914;51.008;4.300;2022-08-25T02:11:12;7.47;;;6.10;;
19537;SDS011;9914;51.008;4.300;2022-08-25T02:13:39;7.37;;;6.20;;
19537;SDS011;9914;51.008;4.300;2022-08-25T02:16:06;10.43;;;6.27;;
19537;SDS011;9914;51.008;4.300;2022-08-25T02:18:34;8.00;;;5.60;;
19537;SDS011;9914;51.008;4.300;2022-08-25T02:21:00;10.93;;;6.30;;
19537;SDS011;9914;51.008;4.300;2022-08-25T02:23:26;10.47;;;6.20;;
19537;SDS011;9914;51.008;4.300;2022-08-25T02:25:52;10.83;;;6.53;;
19537;SDS011;9914;51.008;4.300;2022-08-25T02:28:18;8.83;;;6.47;;
19537;SDS011;9914;51.008;4.300;2022-08-25T02:30:43;11.03;;;7.07;;
19537;SDS011;9914;51.008;4.300;2022-08-25T02:33:10;8.70;;;7.33;;
19537;SDS011;9914;51.008;4.300;2022-08-25T02:35:36;10.10;;;7.37;;
19537;SDS011;9914;51.008;4.300;2022-08-25T02:38:01;8.53;;;7.63;;
19537;SDS011;9914;51.008;4.300;2022-08-25T02:40:28;8.73;;;7.83;;
19537;SDS011;9914;51.008;4.300;2022-08-25T02:42:54;8.70;;;7.90;;
19537;SDS011;9914;51.008;4.300;2022-08-25T02:45:19;8.17;;;7.33;;
19537;SDS011;9914;51.008;4.300;2022-08-25T02:47:45;11.03;;;7.93;;
19537;SDS011;9914;51.008;4.300;2022-08-25T02:50:11;11.00;;;8.27;;
19537;SDS011;9914;51.008;4.300;2022-08-25T02:52:37;9.70;;;8.80;;
19537;SDS011;9914;51.008;4.300;2022-08-25T02:55:06;10.03;;;8.70;;
19537;SDS011;9914;51.008;4.300;2022-08-25T02:57:33;9.50;;;8.53;;
19537;SDS011;9914;51.008;4.300;2022-08-25T02:59:59;12.03;;;9.27;;
19537;SDS011;9914;51.008;4.300;2022-08-25T03:02:25;10.50;;;9.00;;
19537;SDS011;9914;51.008;4.300;2022-08-25T03:04:52;9.67;;;8.87;;
19537;SDS011;9914;51.008;4.300;2022-08-25T03:07:18;9.53;;;8.40;;
19537;SDS011;9914;51.008;4.300;2022-08-25T03:09:45;9.67;;;8.73;;
19537;SDS011;9914;51.008;4.300;2022-08-25T03:12:11;9.63;;;8.83;;
19537;SDS011;9914;51.008;4.300;2022-08-25T03:14:38;10.80;;;9.73;;
19537;SDS011;9914;51.008;4.300;2022-08-25T03:17:07;12.03;;;10.90;;
19537;SDS011;9914;51.008;4.300;2022-08-25T03:19:33;11.67;;;10.60;;
19537;SDS011;9914;51.008;4.300;2022-08-25T03:21:59;11.77;;;10.77;;
19537;SDS011;9914;51.008;4.300;2022-08-25T03:24:25;12.47;;;11.30;;
19537;SDS011;9914;51.008;4.300;2022-08-25T03:26:52;13.47;;;12.20;;
19537;SDS011;9914;51.008;4.300;2022-08-25T03:29:18;14.03;;;12.67;;
19537;SDS011;9914;51.008;4.300;2022-08-25T03:31:49;13.40;;;11.97;;
19537;SDS011;9914;51.008;4.300;2022-08-25T03:34:16;14.60;;;13.20;;
19537;SDS011;9914;51.008;4.300;2022-08-25T03:36:42;15.43;;;13.93;;
19537;SDS011;9914;51.008;4.300;2022-08-25T03:39:10;14.97;;;13.57;;
19537;SDS011;9914;51.008;4.300;2022-08-25T03:41:36;14.53;;;13.30;;
19537;SDS011;9914;51.008;4.300;2022-08-25T03:44:02;14.53;;;13.17;;
19537;SDS011;9914;51.008;4.300;2022-08-25T03:46:31;19.60;;;14.97;;
19537;SDS011;9914;51.008;4.300;2022-08-25T03:48:59;15.13;;;13.57;;
19537;SDS011;9914;51.008;4.300;2022-08-25T03:51:48;15.70;;;14.30;;
19537;SDS011;9914;51.008;4.300;2022-08-25T03:54:14;15.27;;;13.80;;
19537;SDS011;9914;51.008;4.300;2022-08-25T03:56:43;14.33;;;13.07;;
19537;SDS011;9914;51.008;4.300;2022-08-25T03:59:09;15.83;;;14.17;;
19537;SDS011;9914;51.008;4.300;2022-08-25T04:01:38;16.47;;;14.40;;
19537;SDS011;9914;51.008;4.300;2022-08-25T04:04:06;15.70;;;14.10;;
19537;SDS011;9914;51.008;4.300;2022-08-25T04:06:34;15.00;;;13.23;;
19537;SDS011;9914;51.008;4.300;2022-08-25T04:08:59;14.63;;;13.20;;
19537;SDS011;9914;51.008;4.300;2022-08-25T04:11:26;15.23;;;13.63;;
19537;SDS011;9914;51.008;4.300;2022-08-25T04:13:54;14.50;;;12.57;;
19537;SDS011;9914;51.008;4.300;2022-08-25T04:16:23;15.37;;;13.87;;
19537;SDS011;9914;51.008;4.300;2022-08-25T04:18:51;19.37;;;14.70;;
19537;SDS011;9914;51.008;4.300;2022-08-25T04:21:18;15.40;;;13.90;;
19537;SDS011;9914;51.008;4.300;2022-08-25T04:23:45;15.93;;;14.43;;
19537;SDS011;9914;51.008;4.300;2022-08-25T04:26:20;15.43;;;13.80;;
19537;SDS011;9914;51.008;4.300;2022-08-25T04:28:55;14.73;;;13.27;;
19537;SDS011;9914;51.008;4.300;2022-08-25T04:31:21;15.70;;;14.30;;
19537;SDS011;9914;51.008;4.300;2022-08-25T04:33:47;16.27;;;14.57;;
19537;SDS011;9914;51.008;4.300;2022-08-25T04:36:14;17.93;;;14.77;;
19537;SDS011;9914;51.008;4.300;2022-08-25T04:38:42;14.73;;;13.43;;
19537;SDS011;9914;51.008;4.300;2022-08-25T04:41:09;13.77;;;12.47;;
19537;SDS011;9914;51.008;4.300;2022-08-25T04:43:37;14.23;;;12.90;;
19537;SDS011;9914;51.008;4.300;2022-08-25T04:46:14;15.10;;;13.60;;
19537;SDS011;9914;51.008;4.300;2022-08-25T04:48:42;13.03;;;11.83;;
19537;SDS011;9914;51.008;4.300;2022-08-25T04:51:09;13.80;;;12.50;;
19537;SDS011;9914;51.008;4.300;2022-08-25T04:53:38;13.77;;;12.37;;
19537;SDS011;9914;51.008;4.300;2022-08-25T04:56:05;15.33;;;12.47;;
19537;SDS011;9914;51.008;4.300;2022-08-25T04:58:35;13.63;;;11.30;;
19537;SDS011;9914;51.008;4.300;2022-08-25T05:01:08;15.40;;;12.10;;
19537;SDS011;9914;51.008;4.300;2022-08-25T05:03:35;11.20;;;10.10;;
19537;SDS011;9914;51.008;4.300;2022-08-25T05:06:02;12.67;;;11.40;;
19537;SDS011;9914;51.008;4.300;2022-08-25T05:08:29;14.50;;;10.77;;
19537;SDS011;9914;51.008;4.300;2022-08-25T05:10:55;13.03;;;11.23;;
19537;SDS011;9914;51.008;4.300;2022-08-25T05:13:22;12.80;;;11.63;;
19537;SDS011;9914;51.008;4.300;2022-08-25T05:15:55;13.20;;;11.80;;
19537;SDS011;9914;51.008;4.300;2022-08-25T05:18:23;13.07;;;11.10;;
19537;SDS011;9914;51.008;4.300;2022-08-25T05:20:51;13.77;;;11.30;;
19537;SDS011;9914;51.008;4.300;2022-08-25T05:23:18;14.83;;;10.80;;
19537;SDS011;9914;51.008;4.300;2022-08-25T05:25:45;12.60;;;11.00;;
19537;SDS011;9914;51.008;4.300;2022-08-25T05:28:11;12.73;;;11.00;;
19537;SDS011;9914;51.008;4.300;2022-08-25T05:30:39;12.27;;;11.00;;
19537;SDS011;9914;51.008;4.300;2022-08-25T05:33:06;9.97;;;8.93;;
19537;SDS011;9914;51.008;4.300;2022-08-25T05:35:32;12.40;;;10.00;;
19537;SDS011;9914;51.008;4.300;2022-08-25T05:37:57;14.07;;;10.20;;
19537;SDS011;9914;51.008;4.300;2022-08-25T05:40:23;14.43;;;10.63;;
19537;SDS011;9914;51.008;4.300;2022-08-25T05:42:50;16.83;;;9.33;;
19537;SDS011;9914;51.008;4.300;2022-08-25T05:45:16;20.93;;;9.77;;
19537;SDS011;9914;51.008;4.300;2022-08-25T05:47:42;13.50;;;9.40;;
19537;SDS011;9914;51.008;4.300;2022-08-25T05:50:08;11.83;;;8.60;;
19537;SDS011;9914;51.008;4.300;2022-08-25T05:52:35;13.83;;;8.87;;
19537;SDS011;9914;51.008;4.300;2022-08-25T05:55:01;15.37;;;9.23;;
19537;SDS011;9914;51.008;4.300;2022-08-25T05:57:27;13.27;;;9.00;;
19537;SDS011;9914;51.008;4.300;2022-08-25T05:59:53;12.50;;;9.03;;
19537;SDS011;9914;51.008;4.300;2022-08-25T06:02:18;13.17;;;8.27;;
19537;SDS011;9914;51.008;4.300;2022-08-25T06:05:03;12.10;;;8.30;;
19537;SDS011;9914;51.008;4.300;2022-08-25T06:07:29;10.23;;;8.50;;
19537;SDS011;9914;51.008;4.300;2022-08-25T06:09:55;14.43;;;8.23;;
19537;SDS011;9914;51.008;4.300;2022-08-25T06:12:21;15.60;;;8.10;;
19537;SDS011;9914;51.008;4.300;2022-08-25T06:14:50;24.00;;;9.70;;
19537;SDS011;9914;51.008;4.300;2022-08-25T06:17:15;18.20;;;9.33;;
19537;SDS011;9914;51.008;4.300;2022-08-25T06:19:41;21.07;;;8.47;;
19537;SDS011;9914;51.008;4.300;2022-08-25T06:22:07;13.10;;;8.47;;
19537;SDS011;9914;51.008;4.300;2022-08-25T06:24:33;18.93;;;8.60;;
19537;SDS011;9914;51.008;4.300;2022-08-25T06:26:59;18.40;;;8.80;;
19537;SDS011;9914;51.008;4.300;2022-08-25T06:29:25;18.07;;;7.63;;
19537;SDS011;9914;51.008;4.300;2022-08-25T06:31:50;20.53;;;8.03;;
19537;SDS011;9914;51.008;4.300;2022-08-25T06:34:16;18.50;;;8.00;;
19537;SDS011;9914;51.008;4.300;2022-08-25T06:36:42;17.23;;;7.80;;
19537;SDS011;9914;51.008;4.300;2022-08-25T06:39:08;25.80;;;9.03;;
19537;SDS011;9914;51.008;4.300;2022-08-25T06:41:34;23.27;;;9.03;;
19537;SDS011;9914;51.008;4.300;2022-08-25T06:44:00;21.87;;;8.37;;
19537;SDS011;9914;51.008;4.300;2022-08-25T06:46:26;18.07;;;8.50;;
19537;SDS011;9914;51.008;4.300;2022-08-25T06:48:53;18.53;;;8.10;;
19537;SDS011;9914;51.008;4.300;2022-08-25T06:51:20;13.40;;;7.60;;
19537;SDS011;9914;51.008;4.300;2022-08-25T06:53:47;10.03;;;7.70;;
19537;SDS011;9914;51.008;4.300;2022-08-25T06:56:14;15.40;;;7.20;;
19537;SDS011;9914;51.008;4.300;2022-08-25T06:58:41;11.97;;;7.37;;
19537;SDS011;9914;51.008;4.300;2022-08-25T07:01:10;11.43;;;6.80;;
19537;SDS011;9914;51.008;4.300;2022-08-25T07:03:38;12.43;;;7.20;;
19537;SDS011;9914;51.008;4.300;2022-08-25T07:06:04;12.27;;;6.43;;
19537;SDS011;9914;51.008;4.300;2022-08-25T07:08:30;9.47;;;7.27;;
19537;SDS011;9914;51.008;4.300;2022-08-25T07:10:56;15.13;;;7.47;;
19537;SDS011;9914;51.008;4.300;2022-08-25T07:13:23;14.47;;;7.47;;
19537;SDS011;9914;51.008;4.300;2022-08-25T07:15:52;14.93;;;7.60;;
19537;SDS011;9914;51.008;4.300;2022-08-25T07:18:19;13.50;;;7.20;;
19537;SDS011;9914;51.008;4.300;2022-08-25T07:20:45;15.00;;;6.50;;
19537;SDS011;9914;51.008;4.300;2022-08-25T07:23:10;20.07;;;6.90;;
19537;SDS011;9914;51.008;4.300;2022-08-25T07:25:36;12.27;;;5.77;;
19537;SDS011;9914;51.008;4.300;2022-08-25T07:28:03;20.17;;;6.40;;
19537;SDS011;9914;51.008;4.300;2022-08-25T07:30:29;20.97;;;6.47;;
19537;SDS011;9914;51.008;4.300;2022-08-25T07:32:56;9.83;;;6.70;;
19537;SDS011;9914;51.008;4.300;2022-08-25T07:35:22;13.37;;;6.33;;
19537;SDS011;9914;51.008;4.300;2022-08-25T07:37:53;10.60;;;5.90;;
19537;SDS011;9914;51.008;4.300;2022-08-25T07:40:26;10.30;;;5.30;;
19537;SDS011;9914;51.008;4.300;2022-08-25T07:43:03;12.43;;;5.37;;
19537;SDS011;9914;51.008;4.300;2022-08-25T07:45:33;8.93;;;5.73;;
19537;SDS011;9914;51.008;4.300;2022-08-25T07:48:01;13.47;;;5.70;;
19537;SDS011;9914;51.008;4.300;2022-08-25T07:50:27;18.90;;;5.43;;
19537;SDS011;9914;51.008;4.300;2022-08-25T07:52:54;12.67;;;5.23;;
19537;SDS011;9914;51.008;4.300;2022-08-25T07:55:20;11.47;;;5.53;;
19537;SDS011;9914;51.008;4.300;2022-08-25T07:57:47;12.13;;;5.43;;
19537;SDS011;9914;51.008;4.300;2022-08-25T08:00:13;15.50;;;5.70;;
19537;SDS011;9914;51.008;4.300;2022-08-25T08:02:42;10.73;;;4.80;;
19537;SDS011;9914;51.008;4.300;2022-08-25T08:05:08;11.30;;;5.43;;
19537;SDS011;9914;51.008;4.300;2022-08-25T08:07:35;10.97;;;5.00;;
19537;SDS011;9914;51.008;4.300;2022-08-25T08:10:01;11.90;;;4.70;;
19537;SDS011;9914;51.008;4.300;2022-08-25T08:12:28;8.97;;;4.90;;
19537;SDS011;9914;51.008;4.300;2022-08-25T08:14:54;15.30;;;4.97;;
19537;SDS011;9914;51.008;4.300;2022-08-25T08:17:20;11.70;;;4.77;;
19537;SDS011;9914;51.008;4.300;2022-08-25T08:19:46;16.90;;;5.97;;
19537;SDS011;9914;51.008;4.300;2022-08-25T08:22:12;16.27;;;6.00;;
19537;SDS011;9914;51.008;4.300;2022-08-25T08:24:42;11.87;;;5.27;;
19537;SDS011;9914;51.008;4.300;2022-08-25T08:27:09;15.43;;;4.43;;
19537;SDS011;9914;51.008;4.300;2022-08-25T08:29:37;18.23;;;4.53;;
19537;SDS011;9914;51.008;4.300;2022-08-25T08:32:04;15.60;;;5.20;;
19537;SDS011;9914;51.008;4.300;2022-08-25T08:34:31;17.77;;;5.33;;
19537;SDS011;9914;51.008;4.300;2022-08-25T08:36:58;14.00;;;4.10;;
19537;SDS011;9914;51.008;4.300;2022-08-25T08:39:25;16.27;;;4.50;;
19537;SDS011;9914;51.008;4.300;2022-08-25T08:58:22;9.60;;;3.77;;
19537;SDS011;9914;51.008;4.300;2022-08-25T09:00:56;11.77;;;3.90;;
19537;SDS011;9914;51.008;4.300;2022-08-25T09:06:19;12.03;;;3.80;;
19537;SDS011;9914;51.008;4.300;2022-08-25T09:08:55;12.27;;;4.60;;
19537;SDS011;9914;51.008;4.300;2022-08-25T09:17:03;5.80;;;3.40;;
19537;SDS011;9914;51.008;4.300;2022-08-25T09:20:00;9.80;;;4.30;;
19537;SDS011;9914;51.008;4.300;2022-08-25T09:25:46;12.70;;;4.00;;
19537;SDS011;9914;51.008;4.300;2022-08-25T09:28:39;7.93;;;3.53;;
19537;SDS011;9914;51.008;4.300;2022-08-25T09:31:18;9.23;;;3.23;;
19537;SDS011;9914;51.008;4.300;2022-08-25T09:33:48;9.57;;;3.20;;
19537;SDS011;9914;51.008;4.300;2022-08-25T09:36:19;10.30;;;3.40;;
19537;SDS011;9914;51.008;4.300;2022-08-25T09:38:45;12.30;;;3.57;;
19537;SDS011;9914;51.008;4.300;2022-08-25T09:41:10;9.93;;;3.37;;
19537;SDS011;9914;51.008;4.300;2022-08-25T09:43:41;11.00;;;3.30;;
19537;SDS011;9914;51.008;4.300;2022-08-25T09:46:22;6.43;;;3.47;;
19537;SDS011;9914;51.008;4.300;2022-08-25T09:48:53;10.20;;;3.70;;
19537;SDS011;9914;51.008;4.300;2022-08-25T09:51:28;13.27;;;3.63;;
19537;SDS011;9914;51.008;4.300;2022-08-25T09:54:01;10.47;;;3.50;;
19537;SDS011;9914;51.008;4.300;2022-08-25T09:56:31;7.60;;;3.27;;
19537;SDS011;9914;51.008;4.300;2022-08-25T10:01:50;12.90;;;3.53;;
19537;SDS011;9914;51.008;4.300;2022-08-25T10:04:26;8.50;;;2.70;;
19537;SDS011;9914;51.008;4.300;2022-08-25T10:06:55;6.40;;;3.30;;
19537;SDS011;9914;51.008;4.300;2022-08-25T10:09:38;6.13;;;2.97;;
19537;SDS011;9914;51.008;4.300;2022-08-25T10:12:15;7.80;;;3.00;;
19537;SDS011;9914;51.008;4.300;2022-08-25T10:14:45;4.30;;;2.53;;
19537;SDS011;9914;51.008;4.300;2022-08-25T10:17:13;5.93;;;2.80;;
19537;SDS011;9914;51.008;4.300;2022-08-25T10:19:39;7.43;;;2.97;;
19537;SDS011;9914;51.008;4.300;2022-08-25T10:22:09;5.73;;;2.40;;
19537;SDS011;9914;51.008;4.300;2022-08-25T10:24:44;6.87;;;2.67;;
19537;SDS011;9914;51.008;4.300;2022-08-25T10:29:50;3.70;;;2.57;;
19537;SDS011;9914;51.008;4.300;2022-08-25T10:32:43;2.73;;;2.30;;
19537;SDS011;9914;51.008;4.300;2022-08-25T10:35:19;6.30;;;2.20;;
19537;SDS011;9914;51.008;4.300;2022-08-25T10:43:45;3.23;;;2.27;;
19537;SDS011;9914;51.008;4.300;2022-08-25T10:49:13;3.80;;;2.40;;
19537;SDS011;9914;51.008;4.300;2022-08-25T10:51:49;3.93;;;2.47;;
19537;SDS011;9914;51.008;4.300;2022-08-25T10:59:58;3.97;;;2.20;;
19537;SDS011;9914;51.008;4.300;2022-08-25T11:11:04;6.03;;;2.80;;
19537;SDS011;9914;51.008;4.300;2022-08-25T11:16:10;4.50;;;2.60;;
19537;SDS011;9914;51.008;4.300;2022-08-25T11:18:44;3.57;;;2.40;;
19537;SDS011;9914;51.008;4.300;2022-08-25T11:27:16;4.88;;;2.40;;
19537;SDS011;9914;51.008;4.300;2022-08-25T11:29:48;3.80;;;2.67;;
19537;SDS011;9914;51.008;4.300;2022-08-25T11:32:23;5.47;;;2.97;;
19537;SDS011;9914;51.008;4.300;2022-08-25T11:34:49;6.35;;;2.45;;
19537;SDS011;9914;51.008;4.300;2022-08-25T11:37:23;5.47;;;2.70;;
19537;SDS011;9914;51.008;4.300;2022-08-25T11:42:33;5.97;;;2.38;;
19537;SDS011;9914;51.008;4.300;2022-08-25T11:51:07;5.50;;;2.60;;
19537;SDS011;9914;51.008;4.300;2022-08-25T11:56:08;2.97;;;2.28;;
19537;SDS011;9914;51.008;4.300;2022-08-25T12:05:04;4.25;;;2.28;;
19537;SDS011;9914;51.008;4.300;2022-08-25T12:09:34;5.40;;;2.55;;
19537;SDS011;9914;51.008;4.300;2022-08-25T12:13:04;9.02;;;3.10;;
19537;SDS011;9914;51.008;4.300;2022-08-25T12:15:27;7.88;;;2.92;;
19537;SDS011;9914;51.008;4.300;2022-08-25T12:18:13;6.90;;;2.67;;
19537;SDS011;9914;51.008;4.300;2022-08-25T12:21:27;12.43;;;2.80;;
19537;SDS011;9914;51.008;4.300;2022-08-25T12:36:55;3.05;;;2.35;;
19537;SDS011;9914;51.008;4.300;2022-08-25T12:39:35;3.30;;;2.63;;
19537;SDS011;9914;51.008;4.300;2022-08-25T12:42:06;7.45;;;2.58;;
19537;SDS011;9914;51.008;4.300;2022-08-25T12:47:50;4.28;;;2.20;;
19537;SDS011;9914;51.008;4.300;2022-08-25T12:55:54;4.82;;;2.72;;
19537;SDS011;9914;51.008;4.300;2022-08-25T12:58:27;2.72;;;2.42;;
19537;SDS011;9914;51.008;4.300;2022-08-25T13:01:09;5.22;;;2.40;;
19537;SDS011;9914;51.008;4.300;2022-08-25T13:07:08;4.18;;;2.63;;
19537;SDS011;9914;51.008;4.300;2022-08-25T13:12:32;8.50;;;2.70;;
19537;SDS011;9914;51.008;4.300;2022-08-25T13:15:06;4.22;;;2.50;;
19537;SDS011;9914;51.008;4.300;2022-08-25T13:17:40;4.60;;;2.28;;
19537;SDS011;9914;51.008;4.300;2022-08-25T13:20:14;4.03;;;2.85;;
19537;SDS011;9914;51.008;4.300;2022-08-25T13:22:51;4.88;;;2.60;;
19537;SDS011;9914;51.008;4.300;2022-08-25T13:25:21;4.97;;;2.60;;
19537;SDS011;9914;51.008;4.300;2022-08-25T13:27:50;16.10;;;7.05;;
19537;SDS011;9914;51.008;4.300;2022-08-25T13:30:23;13.55;;;7.65;;
19537;SDS011;9914;51.008;4.300;2022-08-25T13:32:54;15.80;;;8.27;;
19537;SDS011;9914;51.008;4.300;2022-08-25T13:35:22;14.80;;;6.97;;
19537;SDS011;9914;51.008;4.300;2022-08-25T13:37:50;11.73;;;6.53;;
19537;SDS011;9914;51.008;4.300;2022-08-25T13:40:29;8.30;;;6.27;;
19537;SDS011;9914;51.008;4.300;2022-08-25T13:43:03;9.47;;;6.80;;
19537;SDS011;9914;51.008;4.300;2022-08-25T13:45:36;8.00;;;6.27;;
19537;SDS011;9914;51.008;4.300;2022-08-25T13:48:04;10.83;;;6.27;;
19537;SDS011;9914;51.008;4.300;2022-08-25T13:50:31;11.53;;;6.07;;
19537;SDS011;9914;51.008;4.300;2022-08-25T13:53:00;10.93;;;5.87;;
19537;SDS011;9914;51.008;4.300;2022-08-25T13:55:49;9.47;;;5.90;;
19537;SDS011;9914;51.008;4.300;2022-08-25T13:58:25;7.37;;;4.60;;
19537;SDS011;9914;51.008;4.300;2022-08-25T14:01:04;10.57;;;5.20;;
19537;SDS011;9914;51.008;4.300;2022-08-25T14:03:37;11.70;;;5.77;;
19537;SDS011;9914;51.008;4.300;2022-08-25T14:06:18;7.47;;;5.73;;
19537;SDS011;9914;51.008;4.300;2022-08-25T14:11:28;9.00;;;5.20;;
19537;SDS011;9914;51.008;4.300;2022-08-25T14:14:10;6.77;;;5.37;;
19537;SDS011;9914;51.008;4.300;2022-08-25T14:16:49;6.57;;;5.10;;
19537;SDS011;9914;51.008;4.300;2022-08-25T14:19:20;9.43;;;4.50;;
19537;SDS011;9914;51.008;4.300;2022-08-25T14:21:47;5.93;;;4.57;;
19537;SDS011;9914;51.008;4.300;2022-08-25T14:24:15;8.20;;;4.57;;
19537;SDS011;9914;51.008;4.300;2022-08-25T14:26:42;5.30;;;4.80;;
19537;SDS011;9914;51.008;4.300;2022-08-25T14:29:09;8.10;;;4.10;;
19537;SDS011;9914;51.008;4.300;2022-08-25T14:31:35;6.97;;;4.53;;
19537;SDS011;9914;51.008;4.300;2022-08-25T14:34:07;7.73;;;4.53;;
19537;SDS011;9914;51.008;4.300;2022-08-25T14:36:37;6.03;;;4.13;;
19537;SDS011;9914;51.008;4.300;2022-08-25T14:39:03;7.20;;;4.17;;
19537;SDS011;9914;51.008;4.300;2022-08-25T14:41:30;7.70;;;4.30;;
19537;SDS011;9914;51.008;4.300;2022-08-25T14:44:00;6.83;;;4.97;;
19537;SDS011;9914;51.008;4.300;2022-08-25T14:46:28;6.23;;;5.07;;
19537;SDS011;9914;51.008;4.300;2022-08-25T14:48:59;8.40;;;4.77;;
19537;SDS011;9914;51.008;4.300;2022-08-25T14:51:28;8.13;;;4.87;;
19537;SDS011;9914;51.008;4.300;2022-08-25T14:53:57;8.00;;;4.63;;
19537;SDS011;9914;51.008;4.300;2022-08-25T14:56:25;8.13;;;4.60;;
19537;SDS011;9914;51.008;4.300;2022-08-25T14:58:51;8.47;;;4.73;;
19537;SDS011;9914;51.008;4.300;2022-08-25T15:01:17;7.63;;;5.63;;
19537;SDS011;9914;51.008;4.300;2022-08-25T15:03:45;9.97;;;7.00;;
19537;SDS011;9914;51.008;4.300;2022-08-25T15:06:14;8.93;;;7.97;;
19537;SDS011;9914;51.008;4.300;2022-08-25T15:08:41;11.53;;;9.20;;
19537;SDS011;9914;51.008;4.300;2022-08-25T15:11:26;14.00;;;10.20;;
19537;SDS011;9914;51.008;4.300;2022-08-25T15:13:52;10.07;;;9.03;;
19537;SDS011;9914;51.008;4.300;2022-08-25T15:16:22;14.60;;;8.93;;
19537;SDS011;9914;51.008;4.300;2022-08-25T15:18:59;12.57;;;9.23;;
19537;SDS011;9914;51.008;4.300;2022-08-25T15:21:25;11.97;;;10.23;;
19537;SDS011;9914;51.008;4.300;2022-08-25T15:23:51;15.73;;;10.90;;
19537;SDS011;9914;51.008;4.300;2022-08-25T15:26:16;11.50;;;10.30;;
19537;SDS011;9914;51.008;4.300;2022-08-25T15:28:44;11.03;;;9.20;;
19537;SDS011;9914;51.008;4.300;2022-08-25T15:31:15;10.10;;;9.07;;
19537;SDS011;9914;51.008;4.300;2022-08-25T15:33:42;10.60;;;9.60;;
19537;SDS011;9914;51.008;4.300;2022-08-25T15:36:08;15.27;;;11.67;;
19537;SDS011;9914;51.008;4.300;2022-08-25T15:38:37;16.20;;;13.90;;
19537;SDS011;9914;51.008;4.300;2022-08-25T15:41:03;18.80;;;15.27;;
19537;SDS011;9914;51.008;4.300;2022-08-25T15:43:30;17.87;;;13.67;;
19537;SDS011;9914;51.008;4.300;2022-08-25T15:45:56;16.70;;;14.97;;
19537;SDS011;9914;51.008;4.300;2022-08-25T15:48:22;15.00;;;13.33;;
19537;SDS011;9914;51.008;4.300;2022-08-25T15:50:49;17.90;;;16.10;;
19537;SDS011;9914;51.008;4.300;2022-08-25T15:53:19;19.93;;;17.83;;
19537;SDS011;9914;51.008;4.300;2022-08-25T15:55:46;18.43;;;16.63;;
19537;SDS011;9914;51.008;4.300;2022-08-25T15:58:13;19.63;;;17.70;;
19537;SDS011;9914;51.008;4.300;2022-08-25T16:00:39;19.27;;;17.23;;
19537;SDS011;9914;51.008;4.300;2022-08-25T16:03:05;18.43;;;16.20;;
19537;SDS011;9914;51.008;4.300;2022-08-25T16:05:33;17.90;;;16.10;;
19537;SDS011;9914;51.008;4.300;2022-08-25T16:08:00;19.53;;;15.73;;
19537;SDS011;9914;51.008;4.300;2022-08-25T16:10:25;17.37;;;15.70;;
19537;SDS011;9914;51.008;4.300;2022-08-25T16:12:51;17.27;;;14.83;;
19537;SDS011;9914;51.008;4.300;2022-08-25T16:15:17;20.13;;;17.43;;
19537;SDS011;9914;51.008;4.300;2022-08-25T16:17:42;21.07;;;16.47;;
19537;SDS011;9914;51.008;4.300;2022-08-25T16:20:08;17.77;;;15.60;;
19537;SDS011;9914;51.008;4.300;2022-08-25T16:22:34;18.03;;;13.80;;
19537;SDS011;9914;51.008;4.300;2022-08-25T16:25:00;16.47;;;13.63;;
19537;SDS011;9914;51.008;4.300;2022-08-25T16:27:26;14.67;;;11.60;;
19537;SDS011;9914;51.008;4.300;2022-08-25T16:29:52;14.43;;;12.90;;
19537;SDS011;9914;51.008;4.300;2022-08-25T16:32:17;16.30;;;13.23;;
19537;SDS011;9914;51.008;4.300;2022-08-25T16:34:44;13.30;;;11.93;;
19537;SDS011;9914;51.008;4.300;2022-08-25T16:37:10;13.03;;;11.07;;
19537;SDS011;9914;51.008;4.300;2022-08-25T16:39:36;14.70;;;12.77;;
19537;SDS011;9914;51.008;4.300;2022-08-25T16:42:04;14.80;;;13.20;;
19537;SDS011;9914;51.008;4.300;2022-08-25T16:44:30;16.20;;;14.53;;
19537;SDS011;9914;51.008;4.300;2022-08-25T16:46:55;17.00;;;13.77;;
19537;SDS011;9914;51.008;4.300;2022-08-25T16:49:21;15.53;;;13.87;;
19537;SDS011;9914;51.008;4.300;2022-08-25T16:51:47;16.33;;;13.67;;
19537;SDS011;9914;51.008;4.300;2022-08-25T16:54:13;16.37;;;14.77;;
19537;SDS011;9914;51.008;4.300;2022-08-25T16:56:57;17.07;;;15.37;;
19537;SDS011;9914;51.008;4.300;2022-08-25T16:59:23;21.07;;;15.43;;